Pride Of Kent — MQCJ2 — position and weather

sailwx.info

Track history (hours):
 
Tides and Currents Weather Stations Pressure Air Temp Water Temp Dewpoint Dewpoint Depression Visibility Wind Speed Wind Dir Waves Ship Positions

Pride Of Kent

Operator: P & O Ferries

Last reported at 2017-Jun-28 22:30 UTC. Time now 2017-Jun-28 22:54 UTC.
Position N 50°59' E 001°38'.

Length 180 m; draft 6 m.

Type: Passenger vessel. MMSI: 232009000.

Date/timePositionNaut miles runAvg speedWind from/ knotsBaromVisibWave heightAir tempDewpointWater temp
2017-Jun-28 22:30N 50°59' E 001°38'1019.1
2017-Jun-28 22:01N 51°05' E 001°27'5 8.3
2017-Jun-28 21:25N 51°07' E 001°20'0 0.0
2017-Jun-28 20:56N 51°07' E 001°20'511.7
2017-Jun-28 20:30N 51°06' E 001°28'715.0
2017-Jun-28 20:01N 51°01' E 001°37'917.6
2017-Jun-28 19:30N 50°58' E 001°50'1 1.0
2017-Jun-28 19:00N 50°58' E 001°51'0 0.0
2017-Jun-28 18:30N 50°58' E 001°51'510.8
2017-Jun-28 18:00N 50°58' E 001°42'816.4
2017-Jun-28 17:30N 51°02' E 001°31'9 6.0
2017-Jun-28 16:02N 51°07' E 001°20'0 2.7
2017-Jun-28 16:00N 51°07' E 001°20'612.8
2017-Jun-28 15:31N 51°05' E 001°30'918.0
2017-Jun-28 15:00N 50°60' E 001°41'6 5.5
2017-Jun-28 13:52N 50°58' E 001°51'0 0.7
2017-Jun-28 13:30N 50°58' E 001°51'917.9
2017-Jun-28 13:00N 51°00' E 001°37'918.8
2017-Jun-28 12:30N 51°05' E 001°25'3 3.1
2017-Jun-28 11:23N 51°07' E 001°20'0 0.5
2017-Jun-28 11:01N 51°07' E 001°20'917.4
2017-Jun-28 10:31N 51°04' E 001°33'1019.4
2017-Jun-28 10:01N 50°58' E 001°45'4 7.5
2017-Jun-28 09:30N 50°58' E 001°51'0 0.0
2017-Jun-28 09:00N 50°58' E 001°51'612.7
2017-Jun-28 08:30N 50°58' E 001°41'918.9
2017-Jun-28 08:00N 51°03' E 001°29'7 4.2
2017-Jun-28 06:24N 51°07' E 001°20'410.5
2017-Jun-28 06:00N 51°06' E 001°26'917.2
2017-Jun-28 05:30N 51°02' E 001°38'815.7
2017-Jun-28 05:01N 50°58' E 001°49'1 2.5
2017-Jun-28 04:30N 50°58' E 001°51'0 0.0
2017-Jun-28 04:00N 50°58' E 001°51'1 1.3
2017-Jun-28 03:30N 50°58' E 001°50'918.1
2017-Jun-28 02:59N 50°60' E 001°35'817.3
2017-Jun-28 02:30N 51°06' E 001°26'4 2.8
2017-Jun-28 01:01N 51°07' E 001°20'0 0.5
2017-Jun-28 01:00N 51°07' E 001°20'611.8
2017-Jun-28 00:31N 51°05' E 001°29'917.5
2017-Jun-28 00:01N 51°00' E 001°40'713.9
2017-Jun-27 23:30N 50°58' E 001°51'0 0.3
2017-Jun-27 23:00N 50°58' E 001°51'2 3.9
2017-Jun-27 22:30N 50°58' E 001°48'815.3
2017-Jun-27 22:00N 51°01' E 001°36'918.7
2017-Jun-27 21:30N 51°06' E 001°25'3 4.0
2017-Jun-27 20:45N 51°07' E 001°20'0 0.0
2017-Jun-27 20:29N 51°07' E 001°20'1 2.8
2017-Jun-27 20:01N 51°07' E 001°22'815.8
2017-Jun-27 19:31N 51°03' E 001°33'1019.1
2017-Jun-27 19:00N 50°58' E 001°46'3 6.6
2017-Jun-27 18:30N 50°58' E 001°51'0 0.0
2017-Jun-27 18:00N 50°58' E 001°51'4 8.8
2017-Jun-27 17:30N 50°58' E 001°44'918.3
2017-Jun-27 17:01N 51°03' E 001°32'916.9
2017-Jun-27 16:30N 51°07' E 001°20'0 0.0
2017-Jun-27 15:52N 51°07' E 001°20'0 0.9
2017-Jun-27 15:30N 51°07' E 001°21'0 0.0
2017-Jun-27 15:00N 51°07' E 001°21'0 0.0
2017-Jun-27 14:30N 51°07' E 001°21'0 0.0
2017-Jun-27 13:30N 51°07' E 001°21'0 0.0
2017-Jun-27 13:00N 51°07' E 001°21'0 0.3
2017-Jun-27 12:00N 51°07' E 001°20'0 0.0
2017-Jun-27 11:29N 51°07' E 001°20'0 0.6
2017-Jun-27 11:00N 51°07' E 001°20'815.7
2017-Jun-27 10:31N 51°03' E 001°31'1020.1
2017-Jun-27 10:00N 50°58' E 001°44'4 8.4
2017-Jun-27 09:31N 50°58' E 001°51'0 0.0
2017-Jun-27 09:01N 50°58' E 001°51'2 4.2
2017-Jun-27 08:30N 50°58' E 001°48'816.4
2017-Jun-27 08:00N 51°00' E 001°35'918.5
2017-Jun-27 07:30N 51°06' E 001°23'2 3.6
2017-Jun-27 06:48N 51°07' E 001°20'0 0.0
2017-Jun-27 06:30N 51°07' E 001°20'2 4.2
2017-Jun-27 06:00N 51°07' E 001°23'917.3
2017-Jun-27 05:31N 51°03' E 001°36'917.2
2017-Jun-27 05:01N 50°58' E 001°46'3 5.9
2017-Jun-27 04:30N 50°58' E 001°51'0 0.0
2017-Jun-27 04:00N 50°58' E 001°51'0 0.0
2017-Jun-27 03:30N 50°58' E 001°51'714.2
2017-Jun-27 03:00N 50°59' E 001°40'1019.3
2017-Jun-27 02:30N 51°04' E 001°27'510.8
2017-Jun-27 02:00N 51°07' E 001°20'0 0.0
2017-Jun-27 01:28N 51°07' E 001°20'0 0.0
2017-Jun-27 01:00N 51°07' E 001°20'3 6.6
2017-Jun-27 00:30N 51°06' E 001°25'918.2
2017-Jun-27 00:00N 51°01' E 001°37'816.2
2017-Jun-26 23:30N 50°58' E 001°49'1 2.8
2017-Jun-26 23:00N 50°58' E 001°51'0 0.8
2017-Jun-26 22:29N 50°58' E 001°50'816.8
2017-Jun-26 22:00N 50°59' E 001°38'918.2
2017-Jun-26 21:31N 51°04' E 001°26'5 9.8
2017-Jun-26 20:59N 51°07' E 001°20'0 0.0
2017-Jun-26 20:30N 51°07' E 001°20'1 1.9
2017-Jun-26 20:00N 51°07' E 001°22'1019.3
2017-Jun-26 19:30N 51°02' E 001°35'1019.5
2017-Jun-26 19:00N 50°58' E 001°49'1 2.7
2017-Jun-26 18:30N 50°58' E 001°51'0 0.2
2017-Jun-26 18:00N 50°58' E 001°51'815.4
2017-Jun-26 17:30N 50°60' E 001°39'1019.4
2017-Jun-26 17:00N 51°05' E 001°26'5 8.9
2017-Jun-26 16:30N 51°07' E 001°20'0 0.1
2017-Jun-26 15:58N 51°07' E 001°20'2 5.4
2017-Jun-26 15:31N 51°07' E 001°24'918.6
2017-Jun-26 15:01N 51°03' E 001°37'10 6.1
2017-Jun-26 13:24N 50°58' E 001°51'614.9
2017-Jun-26 13:00N 50°58' E 001°42'1019.4
2017-Jun-26 12:30N 51°03' E 001°29'712.2
2017-Jun-26 11:56N 51°07' E 001°20'0 0.0
2017-Jun-26 11:17N 51°07' E 001°20'0 0.6
2017-Jun-26 11:00N 51°07' E 001°20'816.3
2017-Jun-26 10:30N 51°04' E 001°32'1019.7
2017-Jun-26 10:00N 50°58' E 001°44'4 8.2
2017-Jun-26 09:30N 50°58' E 001°51'0 0.0
2017-Jun-26 09:00N 50°58' E 001°51'1 2.7
2017-Jun-26 08:31N 50°58' E 001°49'816.7
2017-Jun-26 08:00N 51°00' E 001°36'1019.2
2017-Jun-26 07:30N 51°06' E 001°24'3 2.5
2017-Jun-26 06:25N 51°07' E 001°20'1 3.6
2017-Jun-26 06:00N 51°07' E 001°22'917.0
2017-Jun-26 05:30N 51°03' E 001°34'917.1
2017-Jun-26 05:00N 50°58' E 001°45'4 7.1
2017-Jun-26 04:30N 50°58' E 001°51'0 0.0
2017-Jun-26 04:00N 50°58' E 001°51'0 0.4
2017-Jun-26 03:30N 50°58' E 001°51'917.3
2017-Jun-26 03:00N 50°60' E 001°37'918.6
2017-Jun-26 02:30N 51°04' E 001°24'4 2.7
2017-Jun-26 01:00N 51°07' E 001°20'510.3
2017-Jun-26 00:30N 51°06' E 001°28'816.8
2017-Jun-26 00:00N 51°01' E 001°39'714.2
2017-Jun-25 23:30N 50°58' E 001°49'1 2.3
2017-Jun-25 23:00N 50°58' E 001°51'0 0.0
2017-Jun-25 22:31N 50°58' E 001°51'4 8.2
2017-Jun-25 22:00N 50°58' E 001°45'918.9
2017-Jun-25 21:31N 51°02' E 001°31'9 7.6
2017-Jun-25 20:22N 51°07' E 001°20'1 4.0
2017-Jun-25 20:00N 51°07' E 001°22'1019.2
2017-Jun-25 19:31N 51°02' E 001°35'918.7
2017-Jun-25 19:00N 50°58' E 001°49'1 2.7
2017-Jun-25 18:29N 50°58' E 001°51'0 0.0
2017-Jun-25 18:00N 50°58' E 001°51'5 9.9
2017-Jun-25 17:30N 50°58' E 001°43'1019.0
2017-Jun-25 17:00N 51°03' E 001°30'8 6.5
2017-Jun-25 15:49N 51°07' E 001°20'411.5
2017-Jun-25 15:31N 51°07' E 001°26'918.5
2017-Jun-25 15:01N 51°02' E 001°38'9 8.6
2017-Jun-25 13:59N 50°58' E 001°51'0 0.0
2017-Jun-25 13:28N 50°58' E 001°51'612.5
2017-Jun-25 13:00N 50°58' E 001°42'1019.7
2017-Jun-25 12:30N 51°03' E 001°29'710.4
2017-Jun-25 11:51N 51°07' E 001°20'0 0.1
2017-Jun-25 11:24N 51°07' E 001°20'513.3
2017-Jun-25 11:00N 51°05' E 001°28'918.6
2017-Jun-25 10:30N 51°00' E 001°40'714.3
2017-Jun-25 10:01N 50°58' E 001°51'0 0.1
2017-Jun-25 09:31N 50°58' E 001°51'0 0.0
2017-Jun-25 09:00N 50°58' E 001°51'2 3.9
2017-Jun-25 08:30N 50°58' E 001°48'917.4
2017-Jun-25 08:00N 50°59' E 001°34'918.8
2017-Jun-25 07:30N 51°06' E 001°24'3 0.9
2017-Jun-25 04:27N 51°07' E 001°20'0 0.0
2017-Jun-24 21:50N 51°07' E 001°20'0 0.0
2017-Jun-24 21:26N 51°07' E 001°20'2 3.7
2017-Jun-24 20:59N 51°07' E 001°22'919.0
2017-Jun-24 20:30N 51°02' E 001°35'918.5
2017-Jun-24 20:01N 50°58' E 001°48'2 3.2
2017-Jun-24 19:30N 50°58' E 001°51'1 2.1
2017-Jun-24 19:00N 50°58' E 001°49'917.0
2017-Jun-24 18:30N 50°59' E 001°36'1019.2
2017-Jun-24 18:00N 51°05' E 001°25'3 6.6
2017-Jun-24 17:29N 51°07' E 001°20'0 0.4
2017-Jun-24 17:00N 51°07' E 001°20'4 8.4
2017-Jun-24 16:30N 51°07' E 001°27'611.8
2017-Jun-24 16:00N 51°04' E 001°35'917.5
2017-Jun-24 15:30N 50°58' E 001°45'3 6.9
2017-Jun-24 15:00N 50°58' E 001°51'6 6.0
2017-Jun-24 14:00N 50°58' E 001°41'1019.3
2017-Jun-24 13:30N 51°03' E 001°29'7 5.0
2017-Jun-24 12:11N 51°07' E 001°20'0 2.0
2017-Jun-24 12:00N 51°07' E 001°21'3 6.3
2017-Jun-24 11:31N 51°07' E 001°26'5 9.5
2017-Jun-24 11:00N 51°05' E 001°33'815.2
2017-Jun-24 10:30N 51°00' E 001°42'612.6
2017-Jun-24 10:00N 50°58' E 001°51'0 0.1
2017-Jun-24 09:26N 50°58' E 001°51'0 0.1
2017-Jun-24 09:00N 50°58' E 001°51'815.5
2017-Jun-24 08:31N 50°59' E 001°39'918.9
2017-Jun-24 08:00N 51°04' E 001°27'5 4.8
2017-Jun-24 06:58N 51°07' E 001°20'4 7.9
2017-Jun-24 06:30N 51°07' E 001°26'918.8
2017-Jun-24 06:00N 51°01' E 001°38'917.2
2017-Jun-24 05:30N 50°58' E 001°51'1 1.2
2017-Jun-24 05:00N 50°58' E 001°52'0 0.0
2017-Jun-24 04:30N 50°58' E 001°52'0 0.4
2017-Jun-24 04:00N 50°58' E 001°51'815.1
2017-Jun-24 03:30N 50°59' E 001°39'1019.5
2017-Jun-24 03:00N 51°04' E 001°27'5 9.5
2017-Jun-24 02:27N 51°07' E 001°20'0 0.0
2017-Jun-24 01:55N 51°07' E 001°20'4 8.9
2017-Jun-24 01:31N 51°06' E 001°25'918.2
2017-Jun-24 01:00N 51°02' E 001°38'816.2
2017-Jun-24 00:30N 50°58' E 001°50'1 2.5
2017-Jun-24 00:00N 50°58' E 001°52'0 0.0
2017-Jun-23 23:30N 50°58' E 001°52'4 8.1
2017-Jun-23 23:00N 50°58' E 001°45'918.8
2017-Jun-23 22:30N 51°02' E 001°32'917.4
2017-Jun-23 21:59N 51°07' E 001°20'0 0.2
2017-Jun-23 21:02N 51°07' E 001°20'0 0.6
2017-Jun-23 20:58N 51°07' E 001°20'510.8
2017-Jun-23 20:30N 51°06' E 001°28'918.9
2017-Jun-23 20:01N 51°00' E 001°40'714.9
2017-Jun-23 19:30N 50°58' E 001°51'0 0.0
2017-Jun-23 18:59N 50°58' E 001°51'4 8.3
2017-Jun-23 18:30N 50°58' E 001°45'917.9
2017-Jun-23 18:00N 51°02' E 001°32'918.1
2017-Jun-23 17:30N 51°07' E 001°20'0 0.3
2017-Jun-23 16:45N 51°07' E 001°20'0 1.2
2017-Jun-23 16:30N 51°07' E 001°20'3 5.8
2017-Jun-23 16:00N 51°07' E 001°24'612.1
2017-Jun-23 15:30N 51°04' E 001°33'918.2
2017-Jun-23 15:00N 50°59' E 001°44'4 8.7
2017-Jun-23 14:30N 50°58' E 001°51'7 7.0
2017-Jun-23 13:27N 50°59' E 001°39'919.0
2017-Jun-23 13:00N 51°05' E 001°29'6 4.7
2017-Jun-23 11:43N 51°07' E 001°20'0 0.9
2017-Jun-23 11:29N 51°07' E 001°20'3 6.4
2017-Jun-23 11:00N 51°07' E 001°25'715.1
2017-Jun-23 10:31N 51°03' E 001°35'917.3
2017-Jun-23 10:01N 50°58' E 001°46'3 5.3
2017-Jun-23 09:26N 50°58' E 001°51'0 0.0
2017-Jun-23 08:59N 50°58' E 001°51'1 2.7
2017-Jun-23 08:30N 50°58' E 001°49'1119.0
2017-Jun-23 07:56N 50°60' E 001°32'819.4
2017-Jun-23 07:30N 51°06' E 001°23'2 1.9
2017-Jun-23 06:18N 51°07' E 001°20'3 9.3
2017-Jun-23 06:00N 51°07' E 001°24'917.6
2017-Jun-23 05:30N 51°03' E 001°37'816.4
2017-Jun-23 05:00N 50°58' E 001°48'2 4.1
2017-Jun-23 04:30N 50°58' E 001°51'0 0.0
2017-Jun-23 04:00N 50°58' E 001°51'1 2.3
2017-Jun-23 03:31N 50°58' E 001°49'816.2
2017-Jun-23 03:00N 51°01' E 001°37'918.2
2017-Jun-23 02:31N 51°06' E 001°25'3 6.7
2017-Jun-23 02:00N 51°07' E 001°20'0 0.3
2017-Jun-23 01:30N 51°07' E 001°20'815.4
2017-Jun-23 01:00N 51°07' E 001°32'1019.1
2017-Jun-23 00:31N 50°59' E 001°43'510.9
2017-Jun-23 00:01N 50°58' E 001°51'0 0.0
2017-Jun-22 23:30N 50°58' E 001°51'4 8.2
2017-Jun-22 23:00N 50°58' E 001°45'1020.0
2017-Jun-22 22:30N 51°03' E 001°31'813.3
2017-Jun-22 21:54N 51°07' E 001°20'0 0.0
2017-Jun-22 21:19N 51°07' E 001°20'2 5.3
2017-Jun-22 21:00N 51°07' E 001°23'816.7
2017-Jun-22 20:31N 51°03' E 001°34'917.8
2017-Jun-22 20:01N 50°58' E 001°46'3 6.5
2017-Jun-22 19:31N 50°58' E 001°51'0 0.0
2017-Jun-22 19:00N 50°58' E 001°51'612.5
2017-Jun-22 18:31N 50°58' E 001°41'917.8
2017-Jun-22 18:00N 51°01' E 001°28'8 5.1
2017-Jun-22 16:26N 51°07' E 001°20'410.1
2017-Jun-22 16:00N 51°06' E 001°27'1019.2
2017-Jun-22 15:31N 51°00' E 001°39'815.8
2017-Jun-22 15:00N 50°58' E 001°51'0 0.1
2017-Jun-22 14:30N 50°58' E 001°51'5 5.2
2017-Jun-22 13:30N 50°58' E 001°43'918.8
2017-Jun-22 13:00N 51°03' E 001°30'815.4
2017-Jun-22 12:30N 51°07' E 001°20'0 0.0
2017-Jun-22 11:52N 51°07' E 001°20'0 0.4
2017-Jun-22 11:30N 51°07' E 001°20'2 4.6
2017-Jun-22 11:00N 51°07' E 001°24'815.9
2017-Jun-22 10:30N 51°04' E 001°35'917.9
2017-Jun-22 10:00N 50°58' E 001°46'3 5.2
2017-Jun-22 09:23N 50°58' E 001°51'0 0.0
2017-Jun-22 08:53N 50°58' E 001°51'1 1.8
2017-Jun-22 08:30N 50°58' E 001°50'1019.5
2017-Jun-22 08:01N 51°00' E 001°35'1019.3
2017-Jun-22 07:31N 51°06' E 001°23'2 4.4
2017-Jun-22 07:00N 51°07' E 001°20'0 0.0
2017-Jun-22 06:30N 51°07' E 001°20'1 2.5
2017-Jun-22 06:00N 51°07' E 001°22'918.2
2017-Jun-22 05:30N 51°03' E 001°35'917.7
2017-Jun-22 05:00N 50°58' E 001°47'3 5.5
2017-Jun-22 04:30N 50°58' E 001°51'0 0.0
2017-Jun-22 04:00N 50°58' E 001°51'2 3.3
2017-Jun-22 03:31N 50°58' E 001°48'816.1
2017-Jun-22 03:00N 51°01' E 001°36'917.8
2017-Jun-22 02:31N 51°06' E 001°25'3 6.3
2017-Jun-22 02:00N 51°07' E 001°20'0 0.0
2017-Jun-22 01:30N 51°07' E 001°20'0 0.0
2017-Jun-22 01:00N 51°07' E 001°20'4 8.4
2017-Jun-22 00:30N 51°06' E 001°26'917.3
2017-Jun-22 00:00N 51°01' E 001°38'815.6
2017-Jun-21 23:30N 50°58' E 001°49'1 2.1
2017-Jun-21 23:00N 50°58' E 001°51'0 0.0
2017-Jun-21 22:30N 50°58' E 001°51'612.0
2017-Jun-21 22:00N 50°58' E 001°42'917.9
2017-Jun-21 21:30N 51°03' E 001°29'714.9
2017-Jun-21 21:00N 51°07' E 001°20'0 0.0
2017-Jun-21 20:29N 51°07' E 001°20'0 0.1
2017-Jun-21 20:00N 51°07' E 001°20'611.6
2017-Jun-21 19:31N 51°06' E 001°29'1019.1
2017-Jun-21 19:00N 51°00' E 001°41'713.0
2017-Jun-21 18:30N 50°58' E 001°51'0 0.0
2017-Jun-21 18:00N 50°58' E 001°51'2 4.9
2017-Jun-21 17:31N 50°58' E 001°47'917.0
2017-Jun-21 17:01N 51°01' E 001°34'918.6
2017-Jun-21 16:30N 51°06' E 001°22'2 3.2
2017-Jun-21 15:57N 51°07' E 001°20'0 0.0
2017-Jun-21 15:29N 51°07' E 001°20'612.0
2017-Jun-21 15:00N 51°06' E 001°29'1615.9
2017-Jun-21 14:00N 50°58' E 001°51'0 0.0
2017-Jun-21 13:30N 50°58' E 001°51'2 5.0
2017-Jun-21 13:01N 50°58' E 001°47'917.8
2017-Jun-21 12:30N 51°01' E 001°34'1019.3
2017-Jun-21 12:00N 51°07' E 001°21'1 1.2
2017-Jun-21 11:19N 51°07' E 001°20'0 0.2
2017-Jun-21 11:00N 51°07' E 001°20'714.7
2017-Jun-21 10:30N 51°05' E 001°31'918.7
2017-Jun-21 10:00N 50°59' E 001°43'510.8
2017-Jun-21 09:30N 50°58' E 001°51'0 0.0
2017-Jun-21 09:00N 50°58' E 001°51'3 6.0
2017-Jun-21 08:30N 50°58' E 001°46'1019.2
2017-Jun-21 08:00N 51°02' E 001°32'816.9
2017-Jun-21 07:31N 51°07' E 001°22'1 2.0
2017-Jun-21 07:00N 51°07' E 001°20'0 0.0
2017-Jun-21 06:31N 51°07' E 001°20'611.5
2017-Jun-21 06:00N 51°06' E 001°29'816.3
2017-Jun-21 05:30N 51°01' E 001°39'815.8
2017-Jun-21 05:01N 50°58' E 001°51'1 1.4
2017-Jun-21 04:30N 50°58' E 001°52'0 0.0
2017-Jun-21 04:01N 50°58' E 001°52'3 6.2
2017-Jun-21 03:31N 50°58' E 001°47'815.7
2017-Jun-21 03:00N 51°01' E 001°35'816.9
2017-Jun-21 02:31N 51°06' E 001°24'3 5.3
2017-Jun-21 01:56N 51°07' E 001°20'0 0.0
2017-Jun-21 01:15N 51°07' E 001°20'0 0.5
2017-Jun-21 01:00N 51°07' E 001°20'815.9
2017-Jun-21 00:31N 51°04' E 001°31'917.3
2017-Jun-21 00:01N 50°59' E 001°43'611.5
2017-Jun-20 23:30N 50°58' E 001°52'0 0.0
2017-Jun-20 23:00N 50°58' E 001°52'0 0.0
2017-Jun-20 22:31N 50°58' E 001°52'713.3
2017-Jun-20 22:01N 50°58' E 001°41'1019.4
2017-Jun-20 21:30N 51°03' E 001°28'611.5
2017-Jun-20 20:57N 51°07' E 001°20'0 0.0
2017-Jun-20 20:27N 51°07' E 001°20'0 0.0
2017-Jun-20 20:00N 51°07' E 001°20'0 0.5
2017-Jun-20 19:30N 51°07' E 001°20'0 0.9
2017-Jun-20 18:56N 51°08' E 001°20'0 0.0
2017-Jun-20 18:30N 51°08' E 001°20'0 0.0
2017-Jun-20 18:01N 51°08' E 001°20'0 0.0
2017-Jun-20 17:31N 51°08' E 001°20'0 0.0
2017-Jun-20 17:01N 51°08' E 001°20'0 0.0
2017-Jun-20 16:31N 51°08' E 001°20'0 0.0
2017-Jun-20 16:01N 51°08' E 001°20'0 0.0
2017-Jun-20 15:31N 51°08' E 001°20'0 0.0
2017-Jun-20 15:00N 51°08' E 001°20'0 0.0
2017-Jun-20 14:31N 51°08' E 001°20'0 0.0
2017-Jun-20 13:30N 51°08' E 001°20'0 0.0
2017-Jun-20 13:00N 51°08' E 001°20'0 0.0
2017-Jun-20 12:29N 51°08' E 001°20'0 0.0
2017-Jun-20 12:00N 51°08' E 001°20'0 0.7
2017-Jun-20 11:29N 51°07' E 001°20'715.1
2017-Jun-20 11:00N 51°04' E 001°31'1019.1
2017-Jun-20 10:31N 50°59' E 001°44'510.4
2017-Jun-20 10:00N 50°58' E 001°52'0 0.0
2017-Jun-20 09:31N 50°58' E 001°52'0 0.0
2017-Jun-20 09:01N 50°58' E 001°52'3 5.2
2017-Jun-20 08:30N 50°58' E 001°48'1019.4
2017-Jun-20 08:00N 51°01' E 001°33'1019.3
2017-Jun-20 07:30N 51°07' E 001°21'0 0.7
2017-Jun-20 06:51N 51°07' E 001°20'0 0.0
2017-Jun-20 06:30N 51°07' E 001°20'3 6.5
2017-Jun-20 06:00N 51°06' E 001°25'917.4
2017-Jun-20 05:30N 51°02' E 001°37'816.7
2017-Jun-20 05:00N 50°58' E 001°49'1 2.9
2017-Jun-20 04:30N 50°58' E 001°51'0 0.0
2017-Jun-20 04:00N 50°58' E 001°51'5 9.7
2017-Jun-20 03:31N 50°58' E 001°43'815.8
2017-Jun-20 03:00N 50°58' E 001°31'918.2
2017-Jun-20 02:30N 51°06' E 001°23'3 4.8
2017-Jun-20 01:59N 51°07' E 001°20'0 0.0
2017-Jun-20 01:30N 51°07' E 001°20'0 0.0
2017-Jun-20 01:00N 51°07' E 001°20'510.4
2017-Jun-20 00:30N 51°06' E 001°28'1019.4
2017-Jun-20 00:00N 51°00' E 001°40'714.0
2017-Jun-19 23:30N 50°58' E 001°51'0 0.0
2017-Jun-19 23:00N 50°58' E 001°51'1 2.3
2017-Jun-19 22:31N 50°58' E 001°49'918.7
2017-Jun-19 22:00N 50°60' E 001°35'919.0
2017-Jun-19 21:31N 51°06' E 001°24'3 4.0
2017-Jun-19 20:53N 51°07' E 001°20'0 0.0
2017-Jun-19 20:30N 51°07' E 001°20'611.8
2017-Jun-19 20:00N 51°06' E 001°29'918.5
2017-Jun-19 19:30N 51°00' E 001°40'714.0
2017-Jun-19 19:00N 50°58' E 001°51'0 0.3
2017-Jun-19 18:30N 50°58' E 001°51'0 0.9
2017-Jun-19 18:01N 50°58' E 001°50'918.1
2017-Jun-19 17:31N 51°01' E 001°37'1019.3
2017-Jun-19 17:01N 51°06' E 001°24'3 5.0
2017-Jun-19 16:28N 51°07' E 001°20'0 0.0
2017-Jun-19 15:58N 51°07' E 001°20'612.8
2017-Jun-19 15:30N 51°06' E 001°29'817.0
2017-Jun-19 15:00N 51°00' E 001°39'8 8.0
2017-Jun-19 14:00N 50°58' E 001°51'0 0.0
2017-Jun-19 13:30N 50°58' E 001°51'612.5
2017-Jun-19 13:00N 50°58' E 001°41'918.3
2017-Jun-19 12:31N 51°02' E 001°28'714.2
2017-Jun-19 12:00N 51°07' E 001°20'0 0.1
2017-Jun-19 11:08N 51°07' E 001°20'0 0.9
2017-Jun-19 11:00N 51°07' E 001°20'917.8
2017-Jun-19 10:30N 51°05' E 001°34'918.9
2017-Jun-19 10:00N 50°58' E 001°44'4 8.5
2017-Jun-19 09:30N 50°58' E 001°51'0 0.0
2017-Jun-19 09:00N 50°58' E 001°51'3 6.3
2017-Jun-19 08:30N 50°58' E 001°46'917.7
2017-Jun-19 08:00N 51°01' E 001°33'817.2
2017-Jun-19 07:30N 51°07' E 001°22'2 2.8
2017-Jun-19 06:58N 51°07' E 001°20'0 0.1
2017-Jun-19 06:21N 51°07' E 001°20'310.1
2017-Jun-19 06:00N 51°06' E 001°25'917.1
2017-Jun-19 05:30N 51°02' E 001°37'815.5
2017-Jun-19 05:00N 50°58' E 001°48'2 4.1
2017-Jun-19 04:31N 50°58' E 001°51'0 0.0
2017-Jun-19 04:01N 50°58' E 001°51'5 9.5
2017-Jun-19 03:31N 50°58' E 001°43'816.6
2017-Jun-19 03:00N 51°02' E 001°32'714.0
2017-Jun-19 02:30N 51°06' E 001°23'2 4.4
2017-Jun-19 02:00N 51°07' E 001°20'0 0.0
2017-Jun-19 01:27N 51°07' E 001°20'0 0.0
2017-Jun-19 00:59N 51°07' E 001°20'613.1
2017-Jun-19 00:30N 51°06' E 001°30'917.6
2017-Jun-19 00:01N 51°01' E 001°41'713.4
2017-Jun-18 23:30N 50°58' E 001°51'0 0.2
2017-Jun-18 23:01N 50°58' E 001°51'0 0.2
2017-Jun-18 22:31N 50°58' E 001°51'  
Track history (hours):
 
Tides and Currents Weather Stations Pressure Air Temp Water Temp Dewpoint Dewpoint Depression Visibility Wind Speed Wind Dir Waves Ship Positions

Pride Of Kent

Operator: P & O Ferries

Last reported at 2017-Jun-28 22:30 UTC. Time now 2017-Jun-28 22:54 UTC.
Position N 50°59' E 001°38'.

Length 180 m; draft 6 m.

Type: Passenger vessel. MMSI: 232009000.

Date/timePositionNaut miles runAvg speedWind from/ knotsBaromVisibWave heightAir tempDewpointWater temp
2017-Jun-28 22:30N 50°59' E 001°38'1019.1
2017-Jun-28 22:01N 51°05' E 001°27'5 8.3
2017-Jun-28 21:25N 51°07' E 001°20'0 0.0
2017-Jun-28 20:56N 51°07' E 001°20'511.7
2017-Jun-28 20:30N 51°06' E 001°28'715.0
2017-Jun-28 20:01N 51°01' E 001°37'917.6
2017-Jun-28 19:30N 50°58' E 001°50'1 1.0
2017-Jun-28 19:00N 50°58' E 001°51'0 0.0
2017-Jun-28 18:30N 50°58' E 001°51'510.8
2017-Jun-28 18:00N 50°58' E 001°42'816.4
2017-Jun-28 17:30N 51°02' E 001°31'9 6.0
2017-Jun-28 16:02N 51°07' E 001°20'0 2.7
2017-Jun-28 16:00N 51°07' E 001°20'612.8
2017-Jun-28 15:31N 51°05' E 001°30'918.0
2017-Jun-28 15:00N 50°60' E 001°41'6 5.5
2017-Jun-28 13:52N 50°58' E 001°51'0 0.7
2017-Jun-28 13:30N 50°58' E 001°51'917.9
2017-Jun-28 13:00N 51°00' E 001°37'918.8
2017-Jun-28 12:30N 51°05' E 001°25'3 3.1
2017-Jun-28 11:23N 51°07' E 001°20'0 0.5
2017-Jun-28 11:01N 51°07' E 001°20'917.4
2017-Jun-28 10:31N 51°04' E 001°33'1019.4
2017-Jun-28 10:01N 50°58' E 001°45'4 7.5
2017-Jun-28 09:30N 50°58' E 001°51'0 0.0
2017-Jun-28 09:00N 50°58' E 001°51'612.7
2017-Jun-28 08:30N 50°58' E 001°41'918.9
2017-Jun-28 08:00N 51°03' E 001°29'7 4.2
2017-Jun-28 06:24N 51°07' E 001°20'410.5
2017-Jun-28 06:00N 51°06' E 001°26'917.2
2017-Jun-28 05:30N 51°02' E 001°38'815.7
2017-Jun-28 05:01N 50°58' E 001°49'1 2.5
2017-Jun-28 04:30N 50°58' E 001°51'0 0.0
2017-Jun-28 04:00N 50°58' E 001°51'1 1.3
2017-Jun-28 03:30N 50°58' E 001°50'918.1
2017-Jun-28 02:59N 50°60' E 001°35'817.3
2017-Jun-28 02:30N 51°06' E 001°26'4 2.8
2017-Jun-28 01:01N 51°07' E 001°20'0 0.5
2017-Jun-28 01:00N 51°07' E 001°20'611.8
2017-Jun-28 00:31N 51°05' E 001°29'917.5
2017-Jun-28 00:01N 51°00' E 001°40'713.9
2017-Jun-27 23:30N 50°58' E 001°51'0 0.3
2017-Jun-27 23:00N 50°58' E 001°51'2 3.9
2017-Jun-27 22:30N 50°58' E 001°48'815.3
2017-Jun-27 22:00N 51°01' E 001°36'918.7
2017-Jun-27 21:30N 51°06' E 001°25'3 4.0
2017-Jun-27 20:45N 51°07' E 001°20'0 0.0
2017-Jun-27 20:29N 51°07' E 001°20'1 2.8
2017-Jun-27 20:01N 51°07' E 001°22'815.8
2017-Jun-27 19:31N 51°03' E 001°33'1019.1
2017-Jun-27 19:00N 50°58' E 001°46'3 6.6
2017-Jun-27 18:30N 50°58' E 001°51'0 0.0
2017-Jun-27 18:00N 50°58' E 001°51'4 8.8
2017-Jun-27 17:30N 50°58' E 001°44'918.3
2017-Jun-27 17:01N 51°03' E 001°32'916.9
2017-Jun-27 16:30N 51°07' E 001°20'0 0.0
2017-Jun-27 15:52N 51°07' E 001°20'0 0.9
2017-Jun-27 15:30N 51°07' E 001°21'0 0.0
2017-Jun-27 15:00N 51°07' E 001°21'0 0.0
2017-Jun-27 14:30N 51°07' E 001°21'0 0.0
2017-Jun-27 13:30N 51°07' E 001°21'0 0.0
2017-Jun-27 13:00N 51°07' E 001°21'0 0.3
2017-Jun-27 12:00N 51°07' E 001°20'0 0.0
2017-Jun-27 11:29N 51°07' E 001°20'0 0.6
2017-Jun-27 11:00N 51°07' E 001°20'815.7
2017-Jun-27 10:31N 51°03' E 001°31'1020.1
2017-Jun-27 10:00N 50°58' E 001°44'4 8.4
2017-Jun-27 09:31N 50°58' E 001°51'0 0.0
2017-Jun-27 09:01N 50°58' E 001°51'2 4.2
2017-Jun-27 08:30N 50°58' E 001°48'816.4
2017-Jun-27 08:00N 51°00' E 001°35'918.5
2017-Jun-27 07:30N 51°06' E 001°23'2 3.6
2017-Jun-27 06:48N 51°07' E 001°20'0 0.0
2017-Jun-27 06:30N 51°07' E 001°20'2 4.2
2017-Jun-27 06:00N 51°07' E 001°23'917.3
2017-Jun-27 05:31N 51°03' E 001°36'917.2
2017-Jun-27 05:01N 50°58' E 001°46'3 5.9
2017-Jun-27 04:30N 50°58' E 001°51'0 0.0
2017-Jun-27 04:00N 50°58' E 001°51'0 0.0
2017-Jun-27 03:30N 50°58' E 001°51'714.2
2017-Jun-27 03:00N 50°59' E 001°40'1019.3
2017-Jun-27 02:30N 51°04' E 001°27'510.8
2017-Jun-27 02:00N 51°07' E 001°20'0 0.0
2017-Jun-27 01:28N 51°07' E 001°20'0 0.0
2017-Jun-27 01:00N 51°07' E 001°20'3 6.6
2017-Jun-27 00:30N 51°06' E 001°25'918.2
2017-Jun-27 00:00N 51°01' E 001°37'816.2
2017-Jun-26 23:30N 50°58' E 001°49'1 2.8
2017-Jun-26 23:00N 50°58' E 001°51'0 0.8
2017-Jun-26 22:29N 50°58' E 001°50'816.8
2017-Jun-26 22:00N 50°59' E 001°38'918.2
2017-Jun-26 21:31N 51°04' E 001°26'5 9.8
2017-Jun-26 20:59N 51°07' E 001°20'0 0.0
2017-Jun-26 20:30N 51°07' E 001°20'1 1.9
2017-Jun-26 20:00N 51°07' E 001°22'1019.3
2017-Jun-26 19:30N 51°02' E 001°35'1019.5
2017-Jun-26 19:00N 50°58' E 001°49'1 2.7
2017-Jun-26 18:30N 50°58' E 001°51'0 0.2
2017-Jun-26 18:00N 50°58' E 001°51'815.4
2017-Jun-26 17:30N 50°60' E 001°39'1019.4
2017-Jun-26 17:00N 51°05' E 001°26'5 8.9
2017-Jun-26 16:30N 51°07' E 001°20'0 0.1
2017-Jun-26 15:58N 51°07' E 001°20'2 5.4
2017-Jun-26 15:31N 51°07' E 001°24'918.6
2017-Jun-26 15:01N 51°03' E 001°37'10 6.1
2017-Jun-26 13:24N 50°58' E 001°51'614.9
2017-Jun-26 13:00N 50°58' E 001°42'1019.4
2017-Jun-26 12:30N 51°03' E 001°29'712.2
2017-Jun-26 11:56N 51°07' E 001°20'0 0.0
2017-Jun-26 11:17N 51°07' E 001°20'0 0.6
2017-Jun-26 11:00N 51°07' E 001°20'816.3
2017-Jun-26 10:30N 51°04' E 001°32'1019.7
2017-Jun-26 10:00N 50°58' E 001°44'4 8.2
2017-Jun-26 09:30N 50°58' E 001°51'0 0.0
2017-Jun-26 09:00N 50°58' E 001°51'1 2.7
2017-Jun-26 08:31N 50°58' E 001°49'816.7
2017-Jun-26 08:00N 51°00' E 001°36'1019.2
2017-Jun-26 07:30N 51°06' E 001°24'3 2.5
2017-Jun-26 06:25N 51°07' E 001°20'1 3.6
2017-Jun-26 06:00N 51°07' E 001°22'917.0
2017-Jun-26 05:30N 51°03' E 001°34'917.1
2017-Jun-26 05:00N 50°58' E 001°45'4 7.1
2017-Jun-26 04:30N 50°58' E 001°51'0 0.0
2017-Jun-26 04:00N 50°58' E 001°51'0 0.4
2017-Jun-26 03:30N 50°58' E 001°51'917.3
2017-Jun-26 03:00N 50°60' E 001°37'918.6
2017-Jun-26 02:30N 51°04' E 001°24'4 2.7
2017-Jun-26 01:00N 51°07' E 001°20'510.3
2017-Jun-26 00:30N 51°06' E 001°28'816.8
2017-Jun-26 00:00N 51°01' E 001°39'714.2
2017-Jun-25 23:30N 50°58' E 001°49'1 2.3
2017-Jun-25 23:00N 50°58' E 001°51'0 0.0
2017-Jun-25 22:31N 50°58' E 001°51'4 8.2
2017-Jun-25 22:00N 50°58' E 001°45'918.9
2017-Jun-25 21:31N 51°02' E 001°31'9 7.6
2017-Jun-25 20:22N 51°07' E 001°20'1 4.0
2017-Jun-25 20:00N 51°07' E 001°22'1019.2
2017-Jun-25 19:31N 51°02' E 001°35'918.7
2017-Jun-25 19:00N 50°58' E 001°49'1 2.7
2017-Jun-25 18:29N 50°58' E 001°51'0 0.0
2017-Jun-25 18:00N 50°58' E 001°51'5 9.9
2017-Jun-25 17:30N 50°58' E 001°43'1019.0
2017-Jun-25 17:00N 51°03' E 001°30'8 6.5
2017-Jun-25 15:49N 51°07' E 001°20'411.5
2017-Jun-25 15:31N 51°07' E 001°26'918.5
2017-Jun-25 15:01N 51°02' E 001°38'9 8.6
2017-Jun-25 13:59N 50°58' E 001°51'0 0.0
2017-Jun-25 13:28N 50°58' E 001°51'612.5
2017-Jun-25 13:00N 50°58' E 001°42'1019.7
2017-Jun-25 12:30N 51°03' E 001°29'710.4
2017-Jun-25 11:51N 51°07' E 001°20'0 0.1
2017-Jun-25 11:24N 51°07' E 001°20'513.3
2017-Jun-25 11:00N 51°05' E 001°28'918.6
2017-Jun-25 10:30N 51°00' E 001°40'714.3
2017-Jun-25 10:01N 50°58' E 001°51'0 0.1
2017-Jun-25 09:31N 50°58' E 001°51'0 0.0
2017-Jun-25 09:00N 50°58' E 001°51'2 3.9
2017-Jun-25 08:30N 50°58' E 001°48'917.4
2017-Jun-25 08:00N 50°59' E 001°34'918.8
2017-Jun-25 07:30N 51°06' E 001°24'3 0.9
2017-Jun-25 04:27N 51°07' E 001°20'0 0.0
2017-Jun-24 21:50N 51°07' E 001°20'0 0.0
2017-Jun-24 21:26N 51°07' E 001°20'2 3.7
2017-Jun-24 20:59N 51°07' E 001°22'919.0
2017-Jun-24 20:30N 51°02' E 001°35'918.5
2017-Jun-24 20:01N 50°58' E 001°48'2 3.2
2017-Jun-24 19:30N 50°58' E 001°51'1 2.1
2017-Jun-24 19:00N 50°58' E 001°49'917.0
2017-Jun-24 18:30N 50°59' E 001°36'1019.2
2017-Jun-24 18:00N 51°05' E 001°25'3 6.6
2017-Jun-24 17:29N 51°07' E 001°20'0 0.4
2017-Jun-24 17:00N 51°07' E 001°20'4 8.4
2017-Jun-24 16:30N 51°07' E 001°27'611.8
2017-Jun-24 16:00N 51°04' E 001°35'917.5
2017-Jun-24 15:30N 50°58' E 001°45'3 6.9
2017-Jun-24 15:00N 50°58' E 001°51'6 6.0
2017-Jun-24 14:00N 50°58' E 001°41'1019.3
2017-Jun-24 13:30N 51°03' E 001°29'7 5.0
2017-Jun-24 12:11N 51°07' E 001°20'0 2.0
2017-Jun-24 12:00N 51°07' E 001°21'3 6.3
2017-Jun-24 11:31N 51°07' E 001°26'5 9.5
2017-Jun-24 11:00N 51°05' E 001°33'815.2
2017-Jun-24 10:30N 51°00' E 001°42'612.6
2017-Jun-24 10:00N 50°58' E 001°51'0 0.1
2017-Jun-24 09:26N 50°58' E 001°51'0 0.1
2017-Jun-24 09:00N 50°58' E 001°51'815.5
2017-Jun-24 08:31N 50°59' E 001°39'918.9
2017-Jun-24 08:00N 51°04' E 001°27'5 4.8
2017-Jun-24 06:58N 51°07' E 001°20'4 7.9
2017-Jun-24 06:30N 51°07' E 001°26'918.8
2017-Jun-24 06:00N 51°01' E 001°38'917.2
2017-Jun-24 05:30N 50°58' E 001°51'1 1.2
2017-Jun-24 05:00N 50°58' E 001°52'0 0.0
2017-Jun-24 04:30N 50°58' E 001°52'0 0.4
2017-Jun-24 04:00N 50°58' E 001°51'815.1
2017-Jun-24 03:30N 50°59' E 001°39'1019.5
2017-Jun-24 03:00N 51°04' E 001°27'5 9.5
2017-Jun-24 02:27N 51°07' E 001°20'0 0.0
2017-Jun-24 01:55N 51°07' E 001°20'4 8.9
2017-Jun-24 01:31N 51°06' E 001°25'918.2
2017-Jun-24 01:00N 51°02' E 001°38'816.2
2017-Jun-24 00:30N 50°58' E 001°50'1 2.5
2017-Jun-24 00:00N 50°58' E 001°52'0 0.0
2017-Jun-23 23:30N 50°58' E 001°52'4 8.1
2017-Jun-23 23:00N 50°58' E 001°45'918.8
2017-Jun-23 22:30N 51°02' E 001°32'917.4
2017-Jun-23 21:59N 51°07' E 001°20'0 0.2
2017-Jun-23 21:02N 51°07' E 001°20'0 0.6
2017-Jun-23 20:58N 51°07' E 001°20'510.8
2017-Jun-23 20:30N 51°06' E 001°28'918.9
2017-Jun-23 20:01N 51°00' E 001°40'714.9
2017-Jun-23 19:30N 50°58' E 001°51'0 0.0
2017-Jun-23 18:59N 50°58' E 001°51'4 8.3
2017-Jun-23 18:30N 50°58' E 001°45'917.9
2017-Jun-23 18:00N 51°02' E 001°32'918.1
2017-Jun-23 17:30N 51°07' E 001°20'0 0.3
2017-Jun-23 16:45N 51°07' E 001°20'0 1.2
2017-Jun-23 16:30N 51°07' E 001°20'3 5.8
2017-Jun-23 16:00N 51°07' E 001°24'612.1
2017-Jun-23 15:30N 51°04' E 001°33'918.2
2017-Jun-23 15:00N 50°59' E 001°44'4 8.7
2017-Jun-23 14:30N 50°58' E 001°51'7 7.0
2017-Jun-23 13:27N 50°59' E 001°39'919.0
2017-Jun-23 13:00N 51°05' E 001°29'6 4.7
2017-Jun-23 11:43N 51°07' E 001°20'0 0.9
2017-Jun-23 11:29N 51°07' E 001°20'3 6.4
2017-Jun-23 11:00N 51°07' E 001°25'715.1
2017-Jun-23 10:31N 51°03' E 001°35'917.3
2017-Jun-23 10:01N 50°58' E 001°46'3 5.3
2017-Jun-23 09:26N 50°58' E 001°51'0 0.0
2017-Jun-23 08:59N 50°58' E 001°51'1 2.7
2017-Jun-23 08:30N 50°58' E 001°49'1119.0
2017-Jun-23 07:56N 50°60' E 001°32'819.4
2017-Jun-23 07:30N 51°06' E 001°23'2 1.9
2017-Jun-23 06:18N 51°07' E 001°20'3 9.3
2017-Jun-23 06:00N 51°07' E 001°24'917.6
2017-Jun-23 05:30N 51°03' E 001°37'816.4
2017-Jun-23 05:00N 50°58' E 001°48'2 4.1
2017-Jun-23 04:30N 50°58' E 001°51'0 0.0
2017-Jun-23 04:00N 50°58' E 001°51'1 2.3
2017-Jun-23 03:31N 50°58' E 001°49'816.2
2017-Jun-23 03:00N 51°01' E 001°37'918.2
2017-Jun-23 02:31N 51°06' E 001°25'3 6.7
2017-Jun-23 02:00N 51°07' E 001°20'0 0.3
2017-Jun-23 01:30N 51°07' E 001°20'815.4
2017-Jun-23 01:00N 51°07' E 001°32'1019.1
2017-Jun-23 00:31N 50°59' E 001°43'510.9
2017-Jun-23 00:01N 50°58' E 001°51'0 0.0
2017-Jun-22 23:30N 50°58' E 001°51'4 8.2
2017-Jun-22 23:00N 50°58' E 001°45'1020.0
2017-Jun-22 22:30N 51°03' E 001°31'813.3
2017-Jun-22 21:54N 51°07' E 001°20'0 0.0
2017-Jun-22 21:19N 51°07' E 001°20'2 5.3
2017-Jun-22 21:00N 51°07' E 001°23'816.7
2017-Jun-22 20:31N 51°03' E 001°34'917.8
2017-Jun-22 20:01N 50°58' E 001°46'3 6.5
2017-Jun-22 19:31N 50°58' E 001°51'0 0.0
2017-Jun-22 19:00N 50°58' E 001°51'612.5
2017-Jun-22 18:31N 50°58' E 001°41'917.8
2017-Jun-22 18:00N 51°01' E 001°28'8 5.1
2017-Jun-22 16:26N 51°07' E 001°20'410.1
2017-Jun-22 16:00N 51°06' E 001°27'1019.2
2017-Jun-22 15:31N 51°00' E 001°39'815.8
2017-Jun-22 15:00N 50°58' E 001°51'0 0.1
2017-Jun-22 14:30N 50°58' E 001°51'5 5.2
2017-Jun-22 13:30N 50°58' E 001°43'918.8
2017-Jun-22 13:00N 51°03' E 001°30'815.4
2017-Jun-22 12:30N 51°07' E 001°20'0 0.0
2017-Jun-22 11:52N 51°07' E 001°20'0 0.4
2017-Jun-22 11:30N 51°07' E 001°20'2 4.6
2017-Jun-22 11:00N 51°07' E 001°24'815.9
2017-Jun-22 10:30N 51°04' E 001°35'917.9
2017-Jun-22 10:00N 50°58' E 001°46'3 5.2
2017-Jun-22 09:23N 50°58' E 001°51'0 0.0
2017-Jun-22 08:53N 50°58' E 001°51'1 1.8
2017-Jun-22 08:30N 50°58' E 001°50'1019.5
2017-Jun-22 08:01N 51°00' E 001°35'1019.3
2017-Jun-22 07:31N 51°06' E 001°23'2 4.4
2017-Jun-22 07:00N 51°07' E 001°20'0 0.0
2017-Jun-22 06:30N 51°07' E 001°20'1 2.5
2017-Jun-22 06:00N 51°07' E 001°22'918.2
2017-Jun-22 05:30N 51°03' E 001°35'917.7
2017-Jun-22 05:00N 50°58' E 001°47'3 5.5
2017-Jun-22 04:30N 50°58' E 001°51'0 0.0
2017-Jun-22 04:00N 50°58' E 001°51'2 3.3
2017-Jun-22 03:31N 50°58' E 001°48'816.1
2017-Jun-22 03:00N 51°01' E 001°36'917.8
2017-Jun-22 02:31N 51°06' E 001°25'3 6.3
2017-Jun-22 02:00N 51°07' E 001°20'0 0.0
2017-Jun-22 01:30N 51°07' E 001°20'0 0.0
2017-Jun-22 01:00N 51°07' E 001°20'4 8.4
2017-Jun-22 00:30N 51°06' E 001°26'917.3
2017-Jun-22 00:00N 51°01' E 001°38'815.6
2017-Jun-21 23:30N 50°58' E 001°49'1 2.1
2017-Jun-21 23:00N 50°58' E 001°51'0 0.0
2017-Jun-21 22:30N 50°58' E 001°51'612.0
2017-Jun-21 22:00N 50°58' E 001°42'917.9
2017-Jun-21 21:30N 51°03' E 001°29'714.9
2017-Jun-21 21:00N 51°07' E 001°20'0 0.0
2017-Jun-21 20:29N 51°07' E 001°20'0 0.1
2017-Jun-21 20:00N 51°07' E 001°20'611.6
2017-Jun-21 19:31N 51°06' E 001°29'1019.1
2017-Jun-21 19:00N 51°00' E 001°41'713.0
2017-Jun-21 18:30N 50°58' E 001°51'0 0.0
2017-Jun-21 18:00N 50°58' E 001°51'2 4.9
2017-Jun-21 17:31N 50°58' E 001°47'917.0
2017-Jun-21 17:01N 51°01' E 001°34'918.6
2017-Jun-21 16:30N 51°06' E 001°22'2 3.2
2017-Jun-21 15:57N 51°07' E 001°20'0 0.0
2017-Jun-21 15:29N 51°07' E 001°20'612.0
2017-Jun-21 15:00N 51°06' E 001°29'1615.9
2017-Jun-21 14:00N 50°58' E 001°51'0 0.0
2017-Jun-21 13:30N 50°58' E 001°51'2 5.0
2017-Jun-21 13:01N 50°58' E 001°47'917.8
2017-Jun-21 12:30N 51°01' E 001°34'1019.3
2017-Jun-21 12:00N 51°07' E 001°21'1 1.2
2017-Jun-21 11:19N 51°07' E 001°20'0 0.2
2017-Jun-21 11:00N 51°07' E 001°20'714.7
2017-Jun-21 10:30N 51°05' E 001°31'918.7
2017-Jun-21 10:00N 50°59' E 001°43'510.8
2017-Jun-21 09:30N 50°58' E 001°51'0 0.0
2017-Jun-21 09:00N 50°58' E 001°51'3 6.0
2017-Jun-21 08:30N 50°58' E 001°46'1019.2
2017-Jun-21 08:00N 51°02' E 001°32'816.9
2017-Jun-21 07:31N 51°07' E 001°22'1 2.0
2017-Jun-21 07:00N 51°07' E 001°20'0 0.0
2017-Jun-21 06:31N 51°07' E 001°20'611.5
2017-Jun-21 06:00N 51°06' E 001°29'816.3
2017-Jun-21 05:30N 51°01' E 001°39'815.8
2017-Jun-21 05:01N 50°58' E 001°51'1 1.4
2017-Jun-21 04:30N 50°58' E 001°52'0 0.0
2017-Jun-21 04:01N 50°58' E 001°52'3 6.2
2017-Jun-21 03:31N 50°58' E 001°47'815.7
2017-Jun-21 03:00N 51°01' E 001°35'816.9
2017-Jun-21 02:31N 51°06' E 001°24'3 5.3
2017-Jun-21 01:56N 51°07' E 001°20'0 0.0
2017-Jun-21 01:15N 51°07' E 001°20'0 0.5
2017-Jun-21 01:00N 51°07' E 001°20'815.9
2017-Jun-21 00:31N 51°04' E 001°31'917.3
2017-Jun-21 00:01N 50°59' E 001°43'611.5
2017-Jun-20 23:30N 50°58' E 001°52'0 0.0
2017-Jun-20 23:00N 50°58' E 001°52'0 0.0
2017-Jun-20 22:31N 50°58' E 001°52'713.3
2017-Jun-20 22:01N 50°58' E 001°41'1019.4
2017-Jun-20 21:30N 51°03' E 001°28'611.5
2017-Jun-20 20:57N 51°07' E 001°20'0 0.0
2017-Jun-20 20:27N 51°07' E 001°20'0 0.0
2017-Jun-20 20:00N 51°07' E 001°20'0 0.5
2017-Jun-20 19:30N 51°07' E 001°20'0 0.9
2017-Jun-20 18:56N 51°08' E 001°20'0 0.0
2017-Jun-20 18:30N 51°08' E 001°20'0 0.0
2017-Jun-20 18:01N 51°08' E 001°20'0 0.0
2017-Jun-20 17:31N 51°08' E 001°20'0 0.0
2017-Jun-20 17:01N 51°08' E 001°20'0 0.0
2017-Jun-20 16:31N 51°08' E 001°20'0 0.0
2017-Jun-20 16:01N 51°08' E 001°20'0 0.0
2017-Jun-20 15:31N 51°08' E 001°20'0 0.0
2017-Jun-20 15:00N 51°08' E 001°20'0 0.0
2017-Jun-20 14:31N 51°08' E 001°20'0 0.0
2017-Jun-20 13:30N 51°08' E 001°20'0 0.0
2017-Jun-20 13:00N 51°08' E 001°20'0 0.0
2017-Jun-20 12:29N 51°08' E 001°20'0 0.0
2017-Jun-20 12:00N 51°08' E 001°20'0 0.7
2017-Jun-20 11:29N 51°07' E 001°20'715.1
2017-Jun-20 11:00N 51°04' E 001°31'1019.1
2017-Jun-20 10:31N 50°59' E 001°44'510.4
2017-Jun-20 10:00N 50°58' E 001°52'0 0.0
2017-Jun-20 09:31N 50°58' E 001°52'0 0.0
2017-Jun-20 09:01N 50°58' E 001°52'3 5.2
2017-Jun-20 08:30N 50°58' E 001°48'1019.4
2017-Jun-20 08:00N 51°01' E 001°33'1019.3
2017-Jun-20 07:30N 51°07' E 001°21'0 0.7
2017-Jun-20 06:51N 51°07' E 001°20'0 0.0
2017-Jun-20 06:30N 51°07' E 001°20'3 6.5
2017-Jun-20 06:00N 51°06' E 001°25'917.4
2017-Jun-20 05:30N 51°02' E 001°37'816.7
2017-Jun-20 05:00N 50°58' E 001°49'1 2.9
2017-Jun-20 04:30N 50°58' E 001°51'0 0.0
2017-Jun-20 04:00N 50°58' E 001°51'5 9.7
2017-Jun-20 03:31N 50°58' E 001°43'815.8
2017-Jun-20 03:00N 50°58' E 001°31'918.2
2017-Jun-20 02:30N 51°06' E 001°23'3 4.8
2017-Jun-20 01:59N 51°07' E 001°20'0 0.0
2017-Jun-20 01:30N 51°07' E 001°20'0 0.0
2017-Jun-20 01:00N 51°07' E 001°20'510.4
2017-Jun-20 00:30N 51°06' E 001°28'1019.4
2017-Jun-20 00:00N 51°00' E 001°40'714.0
2017-Jun-19 23:30N 50°58' E 001°51'0 0.0
2017-Jun-19 23:00N 50°58' E 001°51'1 2.3
2017-Jun-19 22:31N 50°58' E 001°49'918.7
2017-Jun-19 22:00N 50°60' E 001°35'919.0
2017-Jun-19 21:31N 51°06' E 001°24'3 4.0
2017-Jun-19 20:53N 51°07' E 001°20'0 0.0
2017-Jun-19 20:30N 51°07' E 001°20'611.8
2017-Jun-19 20:00N 51°06' E 001°29'918.5
2017-Jun-19 19:30N 51°00' E 001°40'714.0
2017-Jun-19 19:00N 50°58' E 001°51'0 0.3
2017-Jun-19 18:30N 50°58' E 001°51'0 0.9
2017-Jun-19 18:01N 50°58' E 001°50'918.1
2017-Jun-19 17:31N 51°01' E 001°37'1019.3
2017-Jun-19 17:01N 51°06' E 001°24'3 5.0
2017-Jun-19 16:28N 51°07' E 001°20'0 0.0
2017-Jun-19 15:58N 51°07' E 001°20'612.8
2017-Jun-19 15:30N 51°06' E 001°29'817.0
2017-Jun-19 15:00N 51°00' E 001°39'8 8.0
2017-Jun-19 14:00N 50°58' E 001°51'0 0.0
2017-Jun-19 13:30N 50°58' E 001°51'612.5
2017-Jun-19 13:00N 50°58' E 001°41'918.3
2017-Jun-19 12:31N 51°02' E 001°28'714.2
2017-Jun-19 12:00N 51°07' E 001°20'0 0.1
2017-Jun-19 11:08N 51°07' E 001°20'0 0.9
2017-Jun-19 11:00N 51°07' E 001°20'917.8
2017-Jun-19 10:30N 51°05' E 001°34'918.9
2017-Jun-19 10:00N 50°58' E 001°44'4 8.5
2017-Jun-19 09:30N 50°58' E 001°51'0 0.0
2017-Jun-19 09:00N 50°58' E 001°51'3 6.3
2017-Jun-19 08:30N 50°58' E 001°46'917.7
2017-Jun-19 08:00N 51°01' E 001°33'817.2
2017-Jun-19 07:30N 51°07' E 001°22'2 2.8
2017-Jun-19 06:58N 51°07' E 001°20'0 0.1
2017-Jun-19 06:21N 51°07' E 001°20'310.1
2017-Jun-19 06:00N 51°06' E 001°25'917.1
2017-Jun-19 05:30N 51°02' E 001°37'815.5
2017-Jun-19 05:00N 50°58' E 001°48'2 4.1
2017-Jun-19 04:31N 50°58' E 001°51'0 0.0
2017-Jun-19 04:01N 50°58' E 001°51'5 9.5
2017-Jun-19 03:31N 50°58' E 001°43'816.6
2017-Jun-19 03:00N 51°02' E 001°32'714.0
2017-Jun-19 02:30N 51°06' E 001°23'2 4.4
2017-Jun-19 02:00N 51°07' E 001°20'0 0.0
2017-Jun-19 01:27N 51°07' E 001°20'0 0.0
2017-Jun-19 00:59N 51°07' E 001°20'613.1
2017-Jun-19 00:30N 51°06' E 001°30'917.6
2017-Jun-19 00:01N 51°01' E 001°41'713.4
2017-Jun-18 23:30N 50°58' E 001°51'0 0.2
2017-Jun-18 23:01N 50°58' E 001°51'0 0.2
2017-Jun-18 22:31N 50°58' E 001°51'  

Dump ship's entire track history